sensor_id;sensor_type;location;lat;lon;timestamp;pressure;altitude;pressure_sealevel;temperature;humidity
27294;BME280;14785;52.556;13.430;2023-12-04T00:01:15;37158.09;;;1.37;100.00
27294;BME280;14785;52.556;13.430;2023-12-04T00:03:41;38539.56;;;1.61;100.00
27294;BME280;14785;52.556;13.430;2023-12-04T00:06:06;39347.59;;;1.84;100.00
27294;BME280;14785;52.556;13.430;2023-12-04T00:08:32;36117.09;;;1.25;100.00
27294;BME280;14785;52.556;13.430;2023-12-04T00:10:57;34786.19;;;0.90;100.00
27294;BME280;14785;52.556;13.430;2023-12-04T00:13:23;37078.34;;;1.08;100.00
27294;BME280;14785;52.556;13.430;2023-12-04T00:15:48;42134.28;;;1.64;100.00
27294;BME280;14785;52.556;13.430;2023-12-04T00:18:14;39501.75;;;1.09;100.00
27294;BME280;14785;52.556;13.430;2023-12-04T00:20:39;38381.94;;;0.96;100.00
27294;BME280;14785;52.556;13.430;2023-12-04T00:23:05;42432.19;;;1.48;100.00
27294;BME280;14785;52.556;13.430;2023-12-04T00:25:30;38146.19;;;0.57;100.00
27294;BME280;14785;52.556;13.430;2023-12-04T00:27:55;39290.84;;;0.47;100.00
27294;BME280;14785;52.556;13.430;2023-12-04T00:30:21;39641.66;;;0.18;100.00
27294;BME280;14785;52.556;13.430;2023-12-04T00:32:46;41716.94;;;0.24;100.00
27294;BME280;14785;52.556;13.430;2023-12-04T00:35:13;43554.91;;;0.55;100.00
27294;BME280;14785;52.556;13.430;2023-12-04T00:37:39;45345.50;;;0.47;100.00
27294;BME280;14785;52.556;13.430;2023-12-04T00:40:06;46761.66;;;0.53;100.00
27294;BME280;14785;52.556;13.430;2023-12-04T00:42:32;50003.59;;;1.03;100.00
27294;BME280;14785;52.556;13.430;2023-12-04T00:44:58;47204.66;;;0.66;100.00
27294;BME280;14785;52.556;13.430;2023-12-04T00:47:23;47499.63;;;0.74;100.00
27294;BME280;14785;52.556;13.430;2023-12-04T00:49:49;47184.59;;;0.28;100.00
27294;BME280;14785;52.556;13.430;2023-12-04T00:52:14;46778.88;;;-0.04;100.00
27294;BME280;14785;52.556;13.430;2023-12-04T00:54:40;47984.84;;;-0.22;100.00
27294;BME280;14785;52.556;13.430;2023-12-04T00:57:06;49951.59;;;-0.22;100.00
27294;BME280;14785;52.556;13.430;2023-12-04T00:59:31;52017.53;;;-0.10;100.00
27294;BME280;14785;52.556;13.430;2023-12-04T01:01:57;53583.00;;;-0.12;100.00
27294;BME280;14785;52.556;13.430;2023-12-04T01:04:22;54432.72;;;-0.19;100.00
27294;BME280;14785;52.556;13.430;2023-12-04T01:06:48;55329.97;;;-0.02;100.00
27294;BME280;14785;52.556;13.430;2023-12-04T01:09:13;56963.59;;;0.09;100.00
27294;BME280;14785;52.556;13.430;2023-12-04T01:11:39;56268.28;;;0.03;100.00
27294;BME280;14785;52.556;13.430;2023-12-04T01:14:04;56221.56;;;0.11;100.00
27294;BME280;14785;52.556;13.430;2023-12-04T01:16:29;57688.06;;;0.32;100.00
27294;BME280;14785;52.556;13.430;2023-12-04T01:18:55;57072.16;;;0.34;100.00
27294;BME280;14785;52.556;13.430;2023-12-04T01:21:21;59209.88;;;0.90;100.00
27294;BME280;14785;52.556;13.430;2023-12-04T01:23:46;54473.06;;;0.15;100.00
27294;BME280;14785;52.556;13.430;2023-12-04T01:26:11;52451.28;;;-0.15;100.00
27294;BME280;14785;52.556;13.430;2023-12-04T01:28:37;56813.63;;;0.55;100.00
27294;BME280;14785;52.556;13.430;2023-12-04T01:31:02;57146.84;;;0.82;100.00
27294;BME280;14785;52.556;13.430;2023-12-04T01:33:29;57573.88;;;1.18;100.00
27294;BME280;14785;52.556;13.430;2023-12-04T01:35:54;54227.13;;;1.11;100.00
27294;BME280;14785;52.556;13.430;2023-12-04T01:38:20;50585.63;;;0.95;100.00
27294;BME280;14785;52.556;13.430;2023-12-04T01:40:45;46496.72;;;0.44;100.00
27294;BME280;14785;52.556;13.430;2023-12-04T01:43:11;44920.44;;;0.26;100.00
27294;BME280;14785;52.556;13.430;2023-12-04T01:45:36;45996.72;;;0.30;100.00
27294;BME280;14785;52.556;13.430;2023-12-04T01:48:02;47176.72;;;0.18;100.00
27294;BME280;14785;52.556;13.430;2023-12-04T01:50:28;47753.06;;;0.17;100.00
27294;BME280;14785;52.556;13.430;2023-12-04T01:52:54;48812.91;;;0.16;100.00
27294;BME280;14785;52.556;13.430;2023-12-04T01:55:19;52123.16;;;0.65;100.00
27294;BME280;14785;52.556;13.430;2023-12-04T01:57:47;50533.13;;;0.70;100.00
27294;BME280;14785;52.556;13.430;2023-12-04T02:00:13;46807.09;;;0.26;100.00
27294;BME280;14785;52.556;13.430;2023-12-04T02:02:40;46766.81;;;0.14;100.00
27294;BME280;14785;52.556;13.430;2023-12-04T02:05:08;47540.16;;;0.18;100.00
27294;BME280;14785;52.556;13.430;2023-12-04T02:07:34;48261.59;;;0.19;100.00
27294;BME280;14785;52.556;13.430;2023-12-04T02:10:03;46962.47;;;-0.16;100.00
27294;BME280;14785;52.556;13.430;2023-12-04T02:12:29;48922.59;;;-0.11;100.00
27294;BME280;14785;52.556;13.430;2023-12-04T02:14:55;50182.94;;;-0.22;100.00
27294;BME280;14785;52.556;13.430;2023-12-04T02:17:22;50869.34;;;-0.27;100.00
27294;BME280;14785;52.556;13.430;2023-12-04T02:19:47;51024.91;;;-0.59;100.00
27294;BME280;14785;52.556;13.430;2023-12-04T02:22:13;52024.72;;;-0.61;100.00
27294;BME280;14785;52.556;13.430;2023-12-04T02:24:39;53455.53;;;-0.45;100.00
27294;BME280;14785;52.556;13.430;2023-12-04T02:27:11;56072.88;;;-0.22;100.00
27294;BME280;14785;52.556;13.430;2023-12-04T02:29:48;55578.53;;;-0.21;100.00
27294;BME280;14785;52.556;13.430;2023-12-04T02:32:18;56067.47;;;-0.25;100.00
27294;BME280;14785;52.556;13.430;2023-12-04T02:34:45;55700.91;;;-0.17;100.00
27294;BME280;14785;52.556;13.430;2023-12-04T02:37:14;55370.28;;;-0.17;100.00
27294;BME280;14785;52.556;13.430;2023-12-04T02:39:40;55421.91;;;0.17;100.00
27294;BME280;14785;52.556;13.430;2023-12-04T02:42:06;55247.53;;;0.21;100.00
27294;BME280;14785;52.556;13.430;2023-12-04T02:44:31;53034.22;;;0.00;100.00
27294;BME280;14785;52.556;13.430;2023-12-04T02:46:58;50758.91;;;-0.14;100.00
27294;BME280;14785;52.556;13.430;2023-12-04T02:49:23;49335.69;;;-0.32;100.00
27294;BME280;14785;52.556;13.430;2023-12-04T02:51:49;51885.31;;;-0.02;100.00
27294;BME280;14785;52.556;13.430;2023-12-04T02:54:14;50506.06;;;-0.18;100.00
27294;BME280;14785;52.556;13.430;2023-12-04T02:56:39;50007.34;;;-0.38;100.00
27294;BME280;14785;52.556;13.430;2023-12-04T02:59:05;49664.47;;;-0.51;100.00
27294;BME280;14785;52.556;13.430;2023-12-04T03:01:30;51076.69;;;-0.31;100.00
27294;BME280;14785;52.556;13.430;2023-12-04T03:03:55;52371.41;;;-0.15;100.00
27294;BME280;14785;52.556;13.430;2023-12-04T03:06:21;52462.94;;;0.14;100.00
27294;BME280;14785;52.556;13.430;2023-12-04T03:08:46;49635.22;;;-0.18;100.00
27294;BME280;14785;52.556;13.430;2023-12-04T03:11:11;49603.03;;;0.12;100.00
27294;BME280;14785;52.556;13.430;2023-12-04T03:13:37;48050.13;;;0.09;100.00
27294;BME280;14785;52.556;13.430;2023-12-04T03:16:02;48192.88;;;0.36;100.00
27294;BME280;14785;52.556;13.430;2023-12-04T03:18:29;43938.31;;;-0.30;100.00
27294;BME280;14785;52.556;13.430;2023-12-04T03:20:54;43563.91;;;-0.39;100.00
27294;BME280;14785;52.556;13.430;2023-12-04T03:23:20;43474.50;;;-0.67;100.00
27294;BME280;14785;52.556;13.430;2023-12-04T03:25:45;44979.19;;;-0.61;100.00
27294;BME280;14785;52.556;13.430;2023-12-04T03:28:11;47354.19;;;-0.32;100.00
27294;BME280;14785;52.556;13.430;2023-12-04T03:30:36;46665.72;;;-0.44;100.00
27294;BME280;14785;52.556;13.430;2023-12-04T03:33:01;46396.13;;;-0.60;100.00
27294;BME280;14785;52.556;13.430;2023-12-04T03:35:27;47596.94;;;-0.47;100.00
27294;BME280;14785;52.556;13.430;2023-12-04T03:37:52;47365.22;;;-0.70;100.00
27294;BME280;14785;52.556;13.430;2023-12-04T03:40:18;48690.44;;;-0.40;100.00
27294;BME280;14785;52.556;13.430;2023-12-04T03:42:43;45936.84;;;-0.89;100.00
27294;BME280;14785;52.556;13.430;2023-12-04T03:45:09;47287.50;;;-0.80;100.00
27294;BME280;14785;52.556;13.430;2023-12-04T03:47:34;48083.19;;;-0.72;100.00
27294;BME280;14785;52.556;13.430;2023-12-04T03:50:00;47714.47;;;-0.77;100.00
27294;BME280;14785;52.556;13.430;2023-12-04T03:52:25;47081.66;;;-0.84;100.00
27294;BME280;14785;52.556;13.430;2023-12-04T03:54:51;46781.41;;;-0.90;100.00
27294;BME280;14785;52.556;13.430;2023-12-04T03:57:16;49534.56;;;-0.68;100.00
27294;BME280;14785;52.556;13.430;2023-12-04T03:59:43;49797.41;;;-0.34;100.00
27294;BME280;14785;52.556;13.430;2023-12-04T04:02:08;48193.75;;;-0.47;100.00
27294;BME280;14785;52.556;13.430;2023-12-04T04:04:34;47148.00;;;-0.39;100.00
27294;BME280;14785;52.556;13.430;2023-12-04T04:06:59;45889.47;;;-0.57;100.00
27294;BME280;14785;52.556;13.430;2023-12-04T04:09:25;46086.63;;;-0.48;100.00
27294;BME280;14785;52.556;13.430;2023-12-04T04:11:50;45889.53;;;-0.43;100.00
27294;BME280;14785;52.556;13.430;2023-12-04T04:14:16;44485.94;;;-0.54;100.00
27294;BME280;14785;52.556;13.430;2023-12-04T04:16:41;44153.38;;;-0.59;100.00
27294;BME280;14785;52.556;13.430;2023-12-04T04:19:07;44392.03;;;-0.45;100.00
27294;BME280;14785;52.556;13.430;2023-12-04T04:21:32;43094.66;;;-0.84;100.00
27294;BME280;14785;52.556;13.430;2023-12-04T04:23:57;42716.75;;;-0.96;100.00
27294;BME280;14785;52.556;13.430;2023-12-04T04:26:23;44500.44;;;-0.72;100.00
27294;BME280;14785;52.556;13.430;2023-12-04T04:28:48;44684.34;;;-0.67;100.00
27294;BME280;14785;52.556;13.430;2023-12-04T04:31:16;44415.28;;;-0.73;100.00
27294;BME280;14785;52.556;13.430;2023-12-04T04:33:42;43391.78;;;-0.96;100.00
27294;BME280;14785;52.556;13.430;2023-12-04T04:36:09;44826.75;;;-0.89;100.00
27294;BME280;14785;52.556;13.430;2023-12-04T04:38:35;43641.25;;;-1.23;100.00
27294;BME280;14785;52.556;13.430;2023-12-04T04:41:00;43915.44;;;-1.38;100.00
27294;BME280;14785;52.556;13.430;2023-12-04T04:43:26;44800.91;;;-1.44;100.00
27294;BME280;14785;52.556;13.430;2023-12-04T04:45:51;47369.91;;;-1.09;100.00
27294;BME280;14785;52.556;13.430;2023-12-04T04:48:16;49076.81;;;-1.09;100.00
27294;BME280;14785;52.556;13.430;2023-12-04T04:50:42;48285.34;;;-0.96;100.00
27294;BME280;14785;52.556;13.430;2023-12-04T04:53:07;48148.03;;;-0.75;100.00
27294;BME280;14785;52.556;13.430;2023-12-04T04:55:32;45687.81;;;-1.19;100.00
27294;BME280;14785;52.556;13.430;2023-12-04T04:57:58;46059.13;;;-1.17;100.00
27294;BME280;14785;52.556;13.430;2023-12-04T05:00:23;46279.50;;;-1.11;100.00
27294;BME280;14785;52.556;13.430;2023-12-04T05:02:49;45873.63;;;-0.91;100.00
27294;BME280;14785;52.556;13.430;2023-12-04T05:05:14;45068.13;;;-0.93;100.00
27294;BME280;14785;52.556;13.430;2023-12-04T05:07:39;44321.56;;;-0.92;100.00
27294;BME280;14785;52.556;13.430;2023-12-04T05:10:05;43208.31;;;-1.19;100.00
27294;BME280;14785;52.556;13.430;2023-12-04T05:12:30;43232.47;;;-1.14;100.00
27294;BME280;14785;52.556;13.430;2023-12-04T05:14:56;43196.41;;;-1.00;100.00
27294;BME280;14785;52.556;13.430;2023-12-04T05:17:21;42399.75;;;-1.16;100.00
27294;BME280;14785;52.556;13.430;2023-12-04T05:19:47;40887.91;;;-1.29;100.00
27294;BME280;14785;52.556;13.430;2023-12-04T05:22:12;41858.97;;;-1.19;100.00
27294;BME280;14785;52.556;13.430;2023-12-04T05:24:37;42418.09;;;-1.01;100.00
27294;BME280;14785;52.556;13.430;2023-12-04T05:27:03;41851.50;;;-1.15;100.00
27294;BME280;14785;52.556;13.430;2023-12-04T05:29:29;40024.81;;;-1.47;100.00
27294;BME280;14785;52.556;13.430;2023-12-04T05:31:54;41110.69;;;-1.40;100.00
27294;BME280;14785;52.556;13.430;2023-12-04T05:34:19;42205.31;;;-1.37;100.00
27294;BME280;14785;52.556;13.430;2023-12-04T05:36:45;44632.47;;;-0.78;100.00
27294;BME280;14785;52.556;13.430;2023-12-04T05:39:10;43357.09;;;-1.12;100.00
27294;BME280;14785;52.556;13.430;2023-12-04T05:41:36;42483.31;;;-0.99;100.00
27294;BME280;14785;52.556;13.430;2023-12-04T05:44:01;42923.53;;;-0.94;100.00
27294;BME280;14785;52.556;13.430;2023-12-04T05:46:26;44687.31;;;-0.39;100.00
27294;BME280;14785;52.556;13.430;2023-12-04T05:48:53;44258.59;;;-0.17;100.00
27294;BME280;14785;52.556;13.430;2023-12-04T05:51:18;41216.59;;;-0.39;100.00
27294;BME280;14785;52.556;13.430;2023-12-04T05:53:44;38578.91;;;-0.61;100.00
27294;BME280;14785;52.556;13.430;2023-12-04T05:56:10;36935.00;;;-0.91;100.00
27294;BME280;14785;52.556;13.430;2023-12-04T05:58:35;37687.81;;;-1.00;100.00
27294;BME280;14785;52.556;13.430;2023-12-04T06:01:01;38760.41;;;-0.94;100.00
27294;BME280;14785;52.556;13.430;2023-12-04T06:03:26;39441.81;;;-1.06;100.00
27294;BME280;14785;52.556;13.430;2023-12-04T06:05:51;43385.69;;;-0.62;100.00
27294;BME280;14785;52.556;13.430;2023-12-04T06:08:17;42515.59;;;-0.83;100.00
27294;BME280;14785;52.556;13.430;2023-12-04T06:10:42;42174.06;;;-0.90;100.00
27294;BME280;14785;52.556;13.430;2023-12-04T06:13:08;44236.63;;;-0.68;100.00
27294;BME280;14785;52.556;13.430;2023-12-04T06:15:33;44219.69;;;-0.77;100.00
27294;BME280;14785;52.556;13.430;2023-12-04T06:17:58;43828.59;;;-1.02;100.00
27294;BME280;14785;52.556;13.430;2023-12-04T06:20:24;45637.31;;;-0.91;100.00
27294;BME280;14785;52.556;13.430;2023-12-04T06:22:49;47335.56;;;-0.75;100.00
27294;BME280;14785;52.556;13.430;2023-12-04T06:25:15;45074.28;;;-1.15;100.00
27294;BME280;14785;52.556;13.430;2023-12-04T06:27:41;44749.34;;;-1.38;100.00
27294;BME280;14785;52.556;13.430;2023-12-04T06:30:07;47143.03;;;-1.17;100.00
27294;BME280;14785;52.556;13.430;2023-12-04T06:32:33;49201.47;;;-0.82;100.00
27294;BME280;14785;52.556;13.430;2023-12-04T06:34:59;47779.50;;;-1.05;100.00
27294;BME280;14785;52.556;13.430;2023-12-04T06:37:24;50623.78;;;-0.61;100.00
27294;BME280;14785;52.556;13.430;2023-12-04T06:39:52;49935.72;;;-0.59;100.00
27294;BME280;14785;52.556;13.430;2023-12-04T06:42:18;47868.78;;;-0.70;100.00
27294;BME280;14785;52.556;13.430;2023-12-04T06:44:44;48149.66;;;-0.73;100.00
27294;BME280;14785;52.556;13.430;2023-12-04T06:47:11;47192.00;;;-0.74;100.00
27294;BME280;14785;52.556;13.430;2023-12-04T06:49:37;47383.03;;;-0.67;100.00
27294;BME280;14785;52.556;13.430;2023-12-04T06:52:03;47463.34;;;-0.69;100.00
27294;BME280;14785;52.556;13.430;2023-12-04T06:54:29;46906.91;;;-0.84;100.00
27294;BME280;14785;52.556;13.430;2023-12-04T06:56:54;47398.44;;;-0.73;100.00
27294;BME280;14785;52.556;13.430;2023-12-04T06:59:20;47204.25;;;-0.72;100.00
27294;BME280;14785;52.556;13.430;2023-12-04T07:01:45;47207.41;;;-0.74;100.00
27294;BME280;14785;52.556;13.430;2023-12-04T07:04:11;46941.59;;;-0.66;100.00
27294;BME280;14785;52.556;13.430;2023-12-04T07:06:37;46356.53;;;-0.58;100.00
27294;BME280;14785;52.556;13.430;2023-12-04T07:09:02;46844.09;;;-0.39;100.00
27294;BME280;14785;52.556;13.430;2023-12-04T07:11:28;47017.66;;;-0.08;100.00
27294;BME280;14785;52.556;13.430;2023-12-04T07:13:53;44705.03;;;-0.05;100.00
27294;BME280;14785;52.556;13.430;2023-12-04T07:16:21;42086.00;;;-0.37;100.00
27294;BME280;14785;52.556;13.430;2023-12-04T07:18:50;41533.19;;;-0.49;100.00
27294;BME280;14785;52.556;13.430;2023-12-04T07:21:15;44670.28;;;0.39;100.00
27294;BME280;14785;52.556;13.430;2023-12-04T07:23:41;43822.88;;;0.73;100.00
27294;BME280;14785;52.556;13.430;2023-12-04T07:26:06;40950.63;;;0.91;100.00
27294;BME280;14785;52.556;13.430;2023-12-04T07:28:33;37930.63;;;0.65;100.00
27294;BME280;14785;52.556;13.430;2023-12-04T07:30:58;37932.56;;;1.09;100.00
27294;BME280;14785;52.556;13.430;2023-12-04T07:33:24;35774.22;;;1.10;100.00
27294;BME280;14785;52.556;13.430;2023-12-04T07:35:49;35248.41;;;0.99;100.00
27294;BME280;14785;52.556;13.430;2023-12-04T07:38:16;35668.41;;;1.14;100.00
27294;BME280;14785;52.556;13.430;2023-12-04T07:40:42;33589.69;;;0.86;100.00
27294;BME280;14785;52.556;13.430;2023-12-04T07:43:07;34553.38;;;0.92;100.00
27294;BME280;14785;52.556;13.430;2023-12-04T07:45:34;35540.53;;;0.93;100.00
27294;BME280;14785;52.556;13.430;2023-12-04T07:47:59;35145.94;;;0.99;100.00
27294;BME280;14785;52.556;13.430;2023-12-04T07:50:25;33726.88;;;0.20;100.00
27294;BME280;14785;52.556;13.430;2023-12-04T07:52:51;36133.88;;;0.17;100.00
27294;BME280;14785;52.556;13.430;2023-12-04T07:55:19;38199.56;;;0.24;100.00
27294;BME280;14785;52.556;13.430;2023-12-04T07:57:44;41156.44;;;0.91;100.00
27294;BME280;14785;52.556;13.430;2023-12-04T08:00:10;37758.47;;;0.33;100.00
27294;BME280;14785;52.556;13.430;2023-12-04T08:02:37;40458.94;;;0.83;100.00
27294;BME280;14785;52.556;13.430;2023-12-04T08:05:02;39272.50;;;0.66;100.00
27294;BME280;14785;52.556;13.430;2023-12-04T08:07:28;39509.66;;;0.67;100.00
27294;BME280;14785;52.556;13.430;2023-12-04T08:09:54;39991.41;;;0.80;100.00
27294;BME280;14785;52.556;13.430;2023-12-04T08:12:19;38086.63;;;0.12;100.00
27294;BME280;14785;52.556;13.430;2023-12-04T08:14:45;40965.38;;;0.30;100.00
27294;BME280;14785;52.556;13.430;2023-12-04T08:17:11;43256.25;;;0.69;100.00
27294;BME280;14785;52.556;13.430;2023-12-04T08:19:37;44173.78;;;0.91;100.00
27294;BME280;14785;52.556;13.430;2023-12-04T08:22:04;43897.91;;;0.66;100.00
27294;BME280;14785;52.556;13.430;2023-12-04T08:24:29;45334.94;;;0.67;100.00
27294;BME280;14785;52.556;13.430;2023-12-04T08:26:56;47004.47;;;0.97;100.00
27294;BME280;14785;52.556;13.430;2023-12-04T08:29:22;47551.03;;;1.36;100.00
27294;BME280;14785;52.556;13.430;2023-12-04T08:31:47;45172.38;;;1.28;100.00
27294;BME280;14785;52.556;13.430;2023-12-04T08:34:13;43782.97;;;1.17;100.00
27294;BME280;14785;52.556;13.430;2023-12-04T08:36:38;43022.84;;;0.88;100.00
27294;BME280;14785;52.556;13.430;2023-12-04T08:39:03;43501.16;;;0.66;100.00
27294;BME280;14785;52.556;13.430;2023-12-04T08:41:29;44136.13;;;0.47;100.00
27294;BME280;14785;52.556;13.430;2023-12-04T08:43:54;46300.53;;;0.70;100.00
27294;BME280;14785;52.556;13.430;2023-12-04T08:46:20;47333.44;;;0.99;100.00
27294;BME280;14785;52.556;13.430;2023-12-04T08:48:46;47284.00;;;1.18;100.00
27294;BME280;14785;52.556;13.430;2023-12-04T08:51:15;46804.47;;;1.61;100.00
27294;BME280;14785;52.556;13.430;2023-12-04T08:53:41;45951.41;;;1.79;100.00
27294;BME280;14785;52.556;13.430;2023-12-04T08:56:07;43575.94;;;1.47;100.00
27294;BME280;14785;52.556;13.430;2023-12-04T08:58:33;43032.59;;;1.66;100.00
27294;BME280;14785;52.556;13.430;2023-12-04T09:00:58;43802.59;;;1.82;100.00
27294;BME280;14785;52.556;13.430;2023-12-04T09:03:24;44013.66;;;2.10;100.00
27294;BME280;14785;52.556;13.430;2023-12-04T09:05:49;44658.72;;;2.03;100.00
27294;BME280;14785;52.556;13.430;2023-12-04T09:08:17;44003.75;;;1.89;100.00
27294;BME280;14785;52.556;13.430;2023-12-04T09:10:44;46166.69;;;2.34;100.00
27294;BME280;14785;52.556;13.430;2023-12-04T09:13:09;44352.47;;;2.22;100.00
27294;BME280;14785;52.556;13.430;2023-12-04T09:15:35;45376.41;;;2.51;100.00
27294;BME280;14785;52.556;13.430;2023-12-04T09:18:00;43373.06;;;2.41;100.00
27294;BME280;14785;52.556;13.430;2023-12-04T09:20:25;42387.22;;;1.90;100.00
27294;BME280;14785;52.556;13.430;2023-12-04T09:22:51;43667.78;;;1.78;100.00
27294;BME280;14785;52.556;13.430;2023-12-04T09:25:16;46588.47;;;2.15;100.00
27294;BME280;14785;52.556;13.430;2023-12-04T09:27:42;46606.50;;;2.05;100.00
27294;BME280;14785;52.556;13.430;2023-12-04T09:30:07;45830.25;;;2.10;100.00
27294;BME280;14785;52.556;13.430;2023-12-04T09:32:33;48038.88;;;2.72;100.00
27294;BME280;14785;52.556;13.430;2023-12-04T09:34:59;46309.22;;;2.68;100.00
27294;BME280;14785;52.556;13.430;2023-12-04T09:37:24;47094.06;;;3.03;100.00
27294;BME280;14785;52.556;13.430;2023-12-04T09:39:50;46226.56;;;2.92;100.00
27294;BME280;14785;52.556;13.430;2023-12-04T09:42:16;44977.59;;;2.29;100.00
27294;BME280;14785;52.556;13.430;2023-12-04T09:44:43;46371.00;;;2.61;100.00
27294;BME280;14785;52.556;13.430;2023-12-04T09:47:09;45887.59;;;1.90;100.00
27294;BME280;14785;52.556;13.430;2023-12-04T09:49:37;48848.28;;;1.98;100.00
27294;BME280;14785;52.556;13.430;2023-12-04T09:52:04;49491.84;;;1.67;100.00
27294;BME280;14785;52.556;13.430;2023-12-04T09:54:29;50788.97;;;1.71;100.00
27294;BME280;14785;52.556;13.430;2023-12-04T09:56:57;52302.44;;;1.61;100.00
27294;BME280;14785;52.556;13.430;2023-12-04T09:59:25;55348.16;;;1.86;100.00
27294;BME280;14785;52.556;13.430;2023-12-04T10:01:51;54498.28;;;1.62;100.00
27294;BME280;14785;52.556;13.430;2023-12-04T10:04:18;54056.44;;;1.28;100.00
27294;BME280;14785;52.556;13.430;2023-12-04T10:06:45;57644.69;;;1.89;100.00
27294;BME280;14785;52.556;13.430;2023-12-04T10:09:10;55354.34;;;1.25;100.00
27294;BME280;14785;52.556;13.430;2023-12-04T10:11:41;59388.91;;;1.48;100.00
27294;BME280;14785;52.556;13.430;2023-12-04T10:14:18;57966.44;;;1.04;100.00
27294;BME280;14785;52.556;13.430;2023-12-04T10:16:44;59455.50;;;0.92;100.00
27294;BME280;14785;52.556;13.430;2023-12-04T10:19:26;60285.50;;;0.94;100.00
27294;BME280;14785;52.556;13.430;2023-12-04T10:21:53;60515.13;;;0.81;100.00
27294;BME280;14785;52.556;13.430;2023-12-04T10:24:35;62179.22;;;0.93;100.00
27294;BME280;14785;52.556;13.430;2023-12-04T10:27:05;62099.50;;;0.94;100.00
27294;BME280;14785;52.556;13.430;2023-12-04T10:29:53;65429.81;;;1.52;100.00
27294;BME280;14785;52.556;13.430;2023-12-04T10:32:21;63601.38;;;1.30;100.00
27294;BME280;14785;52.556;13.430;2023-12-04T10:34:50;62722.25;;;1.20;100.00
27294;BME280;14785;52.556;13.430;2023-12-04T10:37:15;62562.59;;;1.11;100.00
27294;BME280;14785;52.556;13.430;2023-12-04T10:39:46;62737.78;;;1.17;100.00
27294;BME280;14785;52.556;13.430;2023-12-04T10:42:23;63044.16;;;1.28;100.00
27294;BME280;14785;52.556;13.430;2023-12-04T10:44:50;62490.69;;;1.29;100.00
27294;BME280;14785;52.556;13.430;2023-12-04T10:47:16;61845.16;;;1.16;100.00
27294;BME280;14785;52.556;13.430;2023-12-04T10:49:42;63602.53;;;1.34;100.00
27294;BME280;14785;52.556;13.430;2023-12-04T10:52:09;64137.44;;;1.47;100.00
27294;BME280;14785;52.556;13.430;2023-12-04T10:54:35;64777.22;;;1.53;100.00
27294;BME280;14785;52.556;13.430;2023-12-04T10:57:01;64756.38;;;1.63;100.00
27294;BME280;14785;52.556;13.430;2023-12-04T10:59:32;63334.28;;;1.23;100.00
27294;BME280;14785;52.556;13.430;2023-12-04T11:02:05;64673.50;;;1.29;100.00
27294;BME280;14785;52.556;13.430;2023-12-04T11:04:31;66126.97;;;1.73;100.00
27294;BME280;14785;52.556;13.430;2023-12-04T11:06:59;65163.00;;;1.60;100.00
27294;BME280;14785;52.556;13.430;2023-12-04T11:09:28;64883.78;;;1.46;100.00
27294;BME280;14785;52.556;13.430;2023-12-04T11:11:59;66889.06;;;1.86;100.00
27294;BME280;14785;52.556;13.430;2023-12-04T11:14:29;64236.69;;;1.67;100.00
27294;BME280;14785;52.556;13.430;2023-12-04T11:17:02;63326.91;;;1.43;100.00
27294;BME280;14785;52.556;13.430;2023-12-04T11:19:54;65905.34;;;1.65;100.00
27294;BME280;14785;52.556;13.430;2023-12-04T11:22:21;66640.47;;;2.24;100.00
27294;BME280;14785;52.556;13.430;2023-12-04T11:24:47;63983.22;;;2.29;100.00
27294;BME280;14785;52.556;13.430;2023-12-04T11:27:17;63841.09;;;1.95;100.00
27294;BME280;14785;52.556;13.430;2023-12-04T11:29:44;63148.41;;;2.32;100.00
27294;BME280;14785;52.556;13.430;2023-12-04T11:32:15;59963.63;;;1.81;100.00
27294;BME280;14785;52.556;13.430;2023-12-04T11:34:50;62474.38;;;1.73;100.00
27294;BME280;14785;52.556;13.430;2023-12-04T11:37:15;62518.91;;;1.61;100.00
27294;BME280;14785;52.556;13.430;2023-12-04T11:39:41;64487.56;;;2.17;100.00
27294;BME280;14785;52.556;13.430;2023-12-04T11:42:07;62697.72;;;2.18;100.00
27294;BME280;14785;52.556;13.430;2023-12-04T11:44:32;61683.13;;;1.75;100.00
27294;BME280;14785;52.556;13.430;2023-12-04T11:47:08;64084.09;;;2.16;100.00
27294;BME280;14785;52.556;13.430;2023-12-04T11:49:33;65044.78;;;2.52;100.00
27294;BME280;14785;52.556;13.430;2023-12-04T11:52:02;62340.16;;;2.26;100.00
27294;BME280;14785;52.556;13.430;2023-12-04T11:57:23;64679.78;;;2.46;100.00
27294;BME280;14785;52.556;13.430;2023-12-04T11:59:49;61993.16;;;1.74;100.00
27294;BME280;14785;52.556;13.430;2023-12-04T12:02:15;63236.81;;;1.78;100.00
27294;BME280;14785;52.556;13.430;2023-12-04T12:04:41;65887.28;;;2.10;100.00
27294;BME280;14785;52.556;13.430;2023-12-04T12:07:07;64513.72;;;2.22;100.00
27294;BME280;14785;52.556;13.430;2023-12-04T12:09:33;64780.66;;;2.48;100.00
27294;BME280;14785;52.556;13.430;2023-12-04T12:12:02;61895.38;;;2.35;100.00
27294;BME280;14785;52.556;13.430;2023-12-04T12:14:29;63902.22;;;2.67;100.00
27294;BME280;14785;52.556;13.430;2023-12-04T12:16:55;61504.22;;;2.23;100.00
27294;BME280;14785;52.556;13.430;2023-12-04T12:19:20;62255.06;;;2.49;100.00
27294;BME280;14785;52.556;13.430;2023-12-04T12:21:47;61274.44;;;2.52;100.00
27294;BME280;14785;52.556;13.430;2023-12-04T12:24:14;59970.81;;;1.83;100.00
27294;BME280;14785;52.556;13.430;2023-12-04T12:26:40;61813.25;;;1.78;100.00
27294;BME280;14785;52.556;13.430;2023-12-04T12:29:05;65263.19;;;2.02;100.00
27294;BME280;14785;52.556;13.430;2023-12-04T12:31:32;65863.47;;;2.03;100.00
27294;BME280;14785;52.556;13.430;2023-12-04T12:33:57;67231.66;;;2.09;100.00
27294;BME280;14785;52.556;13.430;2023-12-04T12:36:22;65739.91;;;1.94;100.00
27294;BME280;14785;52.556;13.430;2023-12-04T12:38:48;67418.84;;;2.23;100.00
27294;BME280;14785;52.556;13.430;2023-12-04T12:41:17;66752.19;;;2.03;100.00
27294;BME280;14785;52.556;13.430;2023-12-04T12:43:43;67997.28;;;2.61;100.00